sensor_id;sensor_type;location;lat;lon;timestamp;P1;durP1;ratioP1;P2;durP2;ratioP2
51368;SDS011;37459;51.416;5.502;2022-10-03T00:00:37;15.47;;;4.93;;
51368;SDS011;37459;51.416;5.502;2022-10-03T00:05:52;15.48;;;4.93;;
51368;SDS011;37459;51.416;5.502;2022-10-03T00:08:35;14.98;;;4.90;;
51368;SDS011;37459;51.416;5.502;2022-10-03T00:11:19;14.57;;;5.32;;
51368;SDS011;37459;51.416;5.502;2022-10-03T00:13:58;15.30;;;5.65;;
51368;SDS011;37459;51.416;5.502;2022-10-03T00:16:35;14.80;;;5.27;;
51368;SDS011;37459;51.416;5.502;2022-10-03T00:19:13;10.85;;;4.55;;
51368;SDS011;37459;51.416;5.502;2022-10-03T00:21:51;20.05;;;5.63;;
51368;SDS011;37459;51.416;5.502;2022-10-03T00:24:34;14.55;;;5.68;;
51368;SDS011;37459;51.416;5.502;2022-10-03T00:27:15;12.70;;;5.27;;
51368;SDS011;37459;51.416;5.502;2022-10-03T00:29:56;12.57;;;5.28;;
51368;SDS011;37459;51.416;5.502;2022-10-03T00:32:34;16.17;;;6.18;;
51368;SDS011;37459;51.416;5.502;2022-10-03T00:35:16;15.00;;;5.60;;
51368;SDS011;37459;51.416;5.502;2022-10-03T00:37:59;12.35;;;5.40;;
51368;SDS011;37459;51.416;5.502;2022-10-03T00:40:46;14.35;;;5.50;;
51368;SDS011;37459;51.416;5.502;2022-10-03T00:46:36;13.45;;;5.90;;
51368;SDS011;37459;51.416;5.502;2022-10-03T00:49:27;12.88;;;5.53;;
51368;SDS011;37459;51.416;5.502;2022-10-03T00:52:28;13.45;;;5.65;;
51368;SDS011;37459;51.416;5.502;2022-10-03T00:55:15;14.13;;;5.72;;
51368;SDS011;37459;51.416;5.502;2022-10-03T00:57:55;13.27;;;5.75;;
51368;SDS011;37459;51.416;5.502;2022-10-03T01:00:28;13.00;;;5.50;;
51368;SDS011;37459;51.416;5.502;2022-10-03T01:06:00;13.43;;;5.80;;
51368;SDS011;37459;51.416;5.502;2022-10-03T01:08:42;13.15;;;6.38;;
51368;SDS011;37459;51.416;5.502;2022-10-03T01:11:22;17.38;;;6.70;;
51368;SDS011;37459;51.416;5.502;2022-10-03T01:14:02;15.32;;;6.07;;
51368;SDS011;37459;51.416;5.502;2022-10-03T01:16:42;12.68;;;5.85;;
51368;SDS011;37459;51.416;5.502;2022-10-03T01:19:39;18.15;;;6.40;;
51368;SDS011;37459;51.416;5.502;2022-10-03T01:22:25;17.17;;;6.70;;
51368;SDS011;37459;51.416;5.502;2022-10-03T01:25:10;17.98;;;6.28;;
51368;SDS011;37459;51.416;5.502;2022-10-03T01:27:45;17.23;;;6.68;;
51368;SDS011;37459;51.416;5.502;2022-10-03T01:30:39;13.70;;;6.13;;
51368;SDS011;37459;51.416;5.502;2022-10-03T01:33:12;17.08;;;6.60;;
51368;SDS011;37459;51.416;5.502;2022-10-03T01:35:49;12.73;;;6.00;;
51368;SDS011;37459;51.416;5.502;2022-10-03T01:38:20;13.48;;;6.78;;
51368;SDS011;37459;51.416;5.502;2022-10-03T01:40:52;18.60;;;6.32;;
51368;SDS011;37459;51.416;5.502;2022-10-03T01:43:31;18.95;;;6.25;;
51368;SDS011;37459;51.416;5.502;2022-10-03T01:46:07;18.58;;;6.57;;
51368;SDS011;37459;51.416;5.502;2022-10-03T01:48:44;12.13;;;6.03;;
51368;SDS011;37459;51.416;5.502;2022-10-03T01:51:19;15.95;;;6.85;;
51368;SDS011;37459;51.416;5.502;2022-10-03T01:53:56;13.95;;;6.28;;
51368;SDS011;37459;51.416;5.502;2022-10-03T01:56:32;13.43;;;6.53;;
51368;SDS011;37459;51.416;5.502;2022-10-03T01:59:02;15.77;;;6.90;;
51368;SDS011;37459;51.416;5.502;2022-10-03T02:01:35;14.68;;;6.55;;
51368;SDS011;37459;51.416;5.502;2022-10-03T02:04:11;12.93;;;6.50;;
51368;SDS011;37459;51.416;5.502;2022-10-03T02:06:49;16.50;;;7.07;;
51368;SDS011;37459;51.416;5.502;2022-10-03T02:12:03;14.75;;;6.50;;
51368;SDS011;37459;51.416;5.502;2022-10-03T02:14:39;17.90;;;6.90;;
51368;SDS011;37459;51.416;5.502;2022-10-03T02:17:18;16.35;;;7.20;;
51368;SDS011;37459;51.416;5.502;2022-10-03T02:19:50;21.50;;;7.13;;
51368;SDS011;37459;51.416;5.502;2022-10-03T02:22:29;20.05;;;6.55;;
51368;SDS011;37459;51.416;5.502;2022-10-03T02:25:03;19.23;;;5.80;;
51368;SDS011;37459;51.416;5.502;2022-10-03T02:28:04;16.67;;;6.88;;
51368;SDS011;37459;51.416;5.502;2022-10-03T02:30:51;25.98;;;6.82;;
51368;SDS011;37459;51.416;5.502;2022-10-03T02:33:39;19.40;;;6.90;;
51368;SDS011;37459;51.416;5.502;2022-10-03T02:36:27;13.65;;;6.72;;
51368;SDS011;37459;51.416;5.502;2022-10-03T02:39:15;18.77;;;7.47;;
51368;SDS011;37459;51.416;5.502;2022-10-03T02:42:03;16.00;;;6.45;;
51368;SDS011;37459;51.416;5.502;2022-10-03T02:45:19;11.98;;;6.25;;
51368;SDS011;37459;51.416;5.502;2022-10-03T02:48:29;15.40;;;7.32;;
51368;SDS011;37459;51.416;5.502;2022-10-03T02:51:24;16.90;;;6.90;;
51368;SDS011;37459;51.416;5.502;2022-10-03T02:54:35;13.52;;;6.72;;
51368;SDS011;37459;51.416;5.502;2022-10-03T03:00:30;15.70;;;6.60;;
51368;SDS011;37459;51.416;5.502;2022-10-03T03:03:25;19.10;;;7.30;;
51368;SDS011;37459;51.416;5.502;2022-10-03T03:06:24;12.40;;;6.40;;
51368;SDS011;37459;51.416;5.502;2022-10-03T03:09:13;17.67;;;7.22;;
51368;SDS011;37459;51.416;5.502;2022-10-03T03:12:15;18.67;;;7.65;;
51368;SDS011;37459;51.416;5.502;2022-10-03T03:18:11;15.02;;;6.93;;
51368;SDS011;37459;51.416;5.502;2022-10-03T03:20:56;16.80;;;6.32;;
51368;SDS011;37459;51.416;5.502;2022-10-03T03:23:42;14.52;;;6.68;;
51368;SDS011;37459;51.416;5.502;2022-10-03T03:26:39;14.45;;;5.97;;
51368;SDS011;37459;51.416;5.502;2022-10-03T03:29:24;14.75;;;6.60;;
51368;SDS011;37459;51.416;5.502;2022-10-03T03:32:01;15.73;;;7.68;;
51368;SDS011;37459;51.416;5.502;2022-10-03T03:34:37;13.05;;;7.00;;
51368;SDS011;37459;51.416;5.502;2022-10-03T03:37:12;14.57;;;6.75;;
51368;SDS011;37459;51.416;5.502;2022-10-03T03:39:52;15.88;;;6.80;;
51368;SDS011;37459;51.416;5.502;2022-10-03T03:42:35;14.82;;;6.55;;
51368;SDS011;37459;51.416;5.502;2022-10-03T03:45:29;13.15;;;6.25;;
51368;SDS011;37459;51.416;5.502;2022-10-03T03:48:18;17.25;;;6.72;;
51368;SDS011;37459;51.416;5.502;2022-10-03T03:51:04;14.38;;;6.43;;
51368;SDS011;37459;51.416;5.502;2022-10-03T03:53:50;14.90;;;6.45;;
51368;SDS011;37459;51.416;5.502;2022-10-03T03:56:35;20.00;;;6.50;;
51368;SDS011;37459;51.416;5.502;2022-10-03T03:59:25;17.00;;;6.43;;
51368;SDS011;37459;51.416;5.502;2022-10-03T04:02:09;15.30;;;6.40;;
51368;SDS011;37459;51.416;5.502;2022-10-03T04:04:50;14.82;;;6.32;;
51368;SDS011;37459;51.416;5.502;2022-10-03T04:07:31;14.68;;;6.32;;
51368;SDS011;37459;51.416;5.502;2022-10-03T04:10:14;10.70;;;6.05;;
51368;SDS011;37459;51.416;5.502;2022-10-03T04:12:54;17.17;;;5.80;;
51368;SDS011;37459;51.416;5.502;2022-10-03T04:15:38;18.13;;;6.28;;
51368;SDS011;37459;51.416;5.502;2022-10-03T04:21:31;16.67;;;6.13;;
51368;SDS011;37459;51.416;5.502;2022-10-03T04:24:14;18.20;;;6.50;;
51368;SDS011;37459;51.416;5.502;2022-10-03T04:27:00;18.92;;;6.18;;
51368;SDS011;37459;51.416;5.502;2022-10-03T04:29:42;16.10;;;6.43;;
51368;SDS011;37459;51.416;5.502;2022-10-03T04:32:15;20.33;;;6.18;;
51368;SDS011;37459;51.416;5.502;2022-10-03T04:35:03;13.52;;;5.90;;
51368;SDS011;37459;51.416;5.502;2022-10-03T04:37:38;17.50;;;6.15;;
51368;SDS011;37459;51.416;5.502;2022-10-03T04:40:16;16.17;;;6.30;;
51368;SDS011;37459;51.416;5.502;2022-10-03T04:42:56;15.82;;;6.10;;
51368;SDS011;37459;51.416;5.502;2022-10-03T04:45:39;14.32;;;6.43;;
51368;SDS011;37459;51.416;5.502;2022-10-03T04:48:14;13.40;;;6.60;;
51368;SDS011;37459;51.416;5.502;2022-10-03T04:50:49;14.10;;;7.00;;
51368;SDS011;37459;51.416;5.502;2022-10-03T04:53:33;19.13;;;6.63;;
51368;SDS011;37459;51.416;5.502;2022-10-03T04:56:12;13.77;;;6.07;;
51368;SDS011;37459;51.416;5.502;2022-10-03T04:58:48;21.60;;;6.90;;
51368;SDS011;37459;51.416;5.502;2022-10-03T05:01:23;20.70;;;6.93;;
51368;SDS011;37459;51.416;5.502;2022-10-03T05:03:59;15.73;;;6.82;;
51368;SDS011;37459;51.416;5.502;2022-10-03T05:06:36;16.25;;;7.78;;
51368;SDS011;37459;51.416;5.502;2022-10-03T05:09:16;16.92;;;7.80;;
51368;SDS011;37459;51.416;5.502;2022-10-03T05:11:56;14.55;;;7.03;;
51368;SDS011;37459;51.416;5.502;2022-10-03T05:14:36;19.35;;;7.90;;
51368;SDS011;37459;51.416;5.502;2022-10-03T05:17:16;19.50;;;7.90;;
51368;SDS011;37459;51.416;5.502;2022-10-03T05:22:45;16.13;;;6.80;;
51368;SDS011;37459;51.416;5.502;2022-10-03T05:25:27;14.82;;;7.00;;
51368;SDS011;37459;51.416;5.502;2022-10-03T05:28:10;14.15;;;6.97;;
51368;SDS011;37459;51.416;5.502;2022-10-03T05:30:46;14.90;;;7.22;;
51368;SDS011;37459;51.416;5.502;2022-10-03T05:33:23;15.43;;;7.00;;
51368;SDS011;37459;51.416;5.502;2022-10-03T05:36:01;23.23;;;7.13;;
51368;SDS011;37459;51.416;5.502;2022-10-03T05:38:50;13.95;;;7.95;;
51368;SDS011;37459;51.416;5.502;2022-10-03T05:41:26;17.92;;;7.65;;
51368;SDS011;37459;51.416;5.502;2022-10-03T05:44:00;15.25;;;8.07;;
51368;SDS011;37459;51.416;5.502;2022-10-03T05:46:40;14.85;;;8.05;;
51368;SDS011;37459;51.416;5.502;2022-10-03T05:52:33;18.95;;;7.63;;
51368;SDS011;37459;51.416;5.502;2022-10-03T05:55:11;12.43;;;7.28;;
51368;SDS011;37459;51.416;5.502;2022-10-03T05:58:08;17.45;;;8.02;;
51368;SDS011;37459;51.416;5.502;2022-10-03T06:00:56;16.95;;;8.05;;
51368;SDS011;37459;51.416;5.502;2022-10-03T06:03:53;18.95;;;8.30;;
51368;SDS011;37459;51.416;5.502;2022-10-03T06:06:42;15.55;;;7.97;;
51368;SDS011;37459;51.416;5.502;2022-10-03T06:12:26;17.55;;;8.45;;
51368;SDS011;37459;51.416;5.502;2022-10-03T06:15:20;17.10;;;9.27;;
51368;SDS011;37459;51.416;5.502;2022-10-03T06:18:11;15.68;;;8.18;;
51368;SDS011;37459;51.416;5.502;2022-10-03T06:30:19;16.83;;;8.73;;
51368;SDS011;37459;51.416;5.502;2022-10-03T06:33:10;18.55;;;8.55;;
51368;SDS011;37459;51.416;5.502;2022-10-03T06:36:08;17.65;;;9.85;;
51368;SDS011;37459;51.416;5.502;2022-10-03T06:42:19;21.65;;;10.70;;
51368;SDS011;37459;51.416;5.502;2022-10-03T06:51:19;18.20;;;10.23;;
51368;SDS011;37459;51.416;5.502;2022-10-03T06:54:05;21.58;;;10.80;;
51368;SDS011;37459;51.416;5.502;2022-10-03T06:56:56;20.40;;;10.57;;
51368;SDS011;37459;51.416;5.502;2022-10-03T07:06:02;18.52;;;10.70;;
51368;SDS011;37459;51.416;5.502;2022-10-03T07:11:45;22.95;;;11.05;;
51368;SDS011;37459;51.416;5.502;2022-10-03T07:17:43;20.23;;;11.10;;
51368;SDS011;37459;51.416;5.502;2022-10-03T07:20:31;20.08;;;11.85;;
51368;SDS011;37459;51.416;5.502;2022-10-03T07:23:23;20.15;;;11.50;;
51368;SDS011;37459;51.416;5.502;2022-10-03T07:29:31;22.65;;;12.02;;
51368;SDS011;37459;51.416;5.502;2022-10-03T07:32:17;22.23;;;12.15;;
51368;SDS011;37459;51.416;5.502;2022-10-03T07:35:12;21.00;;;11.00;;
51368;SDS011;37459;51.416;5.502;2022-10-03T07:38:38;19.00;;;12.32;;
51368;SDS011;37459;51.416;5.502;2022-10-03T07:41:39;20.48;;;12.43;;
51368;SDS011;37459;51.416;5.502;2022-10-03T07:47:47;22.63;;;11.45;;
51368;SDS011;37459;51.416;5.502;2022-10-03T07:50:29;20.60;;;11.63;;
51368;SDS011;37459;51.416;5.502;2022-10-03T07:53:17;22.88;;;10.80;;
51368;SDS011;37459;51.416;5.502;2022-10-03T07:56:03;20.60;;;10.90;;
51368;SDS011;37459;51.416;5.502;2022-10-03T07:58:50;18.20;;;11.02;;
51368;SDS011;37459;51.416;5.502;2022-10-03T08:04:28;20.98;;;11.48;;
51368;SDS011;37459;51.416;5.502;2022-10-03T08:07:12;23.00;;;11.75;;
51368;SDS011;37459;51.416;5.502;2022-10-03T08:10:00;23.58;;;11.23;;
51368;SDS011;37459;51.416;5.502;2022-10-03T08:12:59;20.85;;;11.93;;
51368;SDS011;37459;51.416;5.502;2022-10-03T08:15:49;21.23;;;11.13;;
51368;SDS011;37459;51.416;5.502;2022-10-03T08:21:33;22.30;;;12.63;;
51368;SDS011;37459;51.416;5.502;2022-10-03T08:27:25;20.23;;;11.40;;
51368;SDS011;37459;51.416;5.502;2022-10-03T08:30:10;18.00;;;10.82;;
51368;SDS011;37459;51.416;5.502;2022-10-03T08:32:55;17.55;;;10.85;;
51368;SDS011;37459;51.416;5.502;2022-10-03T08:35:29;16.92;;;10.07;;
51368;SDS011;37459;51.416;5.502;2022-10-03T08:41:40;14.38;;;9.15;;
51368;SDS011;37459;51.416;5.502;2022-10-03T08:44:32;23.40;;;10.75;;
51368;SDS011;37459;51.416;5.502;2022-10-03T08:47:25;20.88;;;10.55;;
51368;SDS011;37459;51.416;5.502;2022-10-03T08:53:32;17.13;;;9.43;;
51368;SDS011;37459;51.416;5.502;2022-10-03T08:56:26;19.67;;;9.10;;
51368;SDS011;37459;51.416;5.502;2022-10-03T09:02:35;18.90;;;9.35;;
51368;SDS011;37459;51.416;5.502;2022-10-03T09:05:27;19.25;;;9.35;;
51368;SDS011;37459;51.416;5.502;2022-10-03T09:11:28;16.20;;;8.00;;
51368;SDS011;37459;51.416;5.502;2022-10-03T09:17:07;19.20;;;8.32;;
51368;SDS011;37459;51.416;5.502;2022-10-03T09:20:15;18.77;;;8.18;;
51368;SDS011;37459;51.416;5.502;2022-10-03T09:25:56;18.77;;;6.57;;
51368;SDS011;37459;51.416;5.502;2022-10-03T09:28:43;18.73;;;6.72;;
51368;SDS011;37459;51.416;5.502;2022-10-03T09:31:27;20.17;;;6.80;;
51368;SDS011;37459;51.416;5.502;2022-10-03T09:34:20;17.52;;;6.53;;
51368;SDS011;37459;51.416;5.502;2022-10-03T09:37:20;16.95;;;4.90;;
51368;SDS011;37459;51.416;5.502;2022-10-03T09:40:17;15.77;;;4.50;;
51368;SDS011;37459;51.416;5.502;2022-10-03T09:43:16;14.02;;;3.75;;
51368;SDS011;37459;51.416;5.502;2022-10-03T09:51:59;14.35;;;4.65;;
51368;SDS011;37459;51.416;5.502;2022-10-03T09:54:53;15.82;;;5.00;;
51368;SDS011;37459;51.416;5.502;2022-10-03T10:00:24;12.75;;;3.00;;
51368;SDS011;37459;51.416;5.502;2022-10-03T10:06:16;10.95;;;2.70;;
51368;SDS011;37459;51.416;5.502;2022-10-03T10:09:12;10.77;;;3.10;;
51368;SDS011;37459;51.416;5.502;2022-10-03T10:15:30;11.40;;;2.95;;
51368;SDS011;37459;51.416;5.502;2022-10-03T10:18:24;9.10;;;3.05;;
51368;SDS011;37459;51.416;5.502;2022-10-03T10:24:20;12.48;;;3.53;;
51368;SDS011;37459;51.416;5.502;2022-10-03T10:27:17;10.15;;;2.65;;
51368;SDS011;37459;51.416;5.502;2022-10-03T10:30:01;10.05;;;2.25;;
51368;SDS011;37459;51.416;5.502;2022-10-03T10:32:46;10.60;;;2.90;;
51368;SDS011;37459;51.416;5.502;2022-10-03T10:35:45;8.88;;;2.78;;
51368;SDS011;37459;51.416;5.502;2022-10-03T10:38:55;11.68;;;2.70;;
51368;SDS011;37459;51.416;5.502;2022-10-03T10:51:20;11.48;;;2.72;;
51368;SDS011;37459;51.416;5.502;2022-10-03T10:54:24;7.78;;;2.47;;
51368;SDS011;37459;51.416;5.502;2022-10-03T11:00:27;9.52;;;2.45;;
51368;SDS011;37459;51.416;5.502;2022-10-03T11:03:21;11.20;;;2.90;;
51368;SDS011;37459;51.416;5.502;2022-10-03T11:09:45;9.05;;;2.13;;
51368;SDS011;37459;51.416;5.502;2022-10-03T11:18:58;10.82;;;2.10;;
51368;SDS011;37459;51.416;5.502;2022-10-03T11:22:00;9.40;;;2.30;;
51368;SDS011;37459;51.416;5.502;2022-10-03T11:27:59;12.48;;;2.40;;
51368;SDS011;37459;51.416;5.502;2022-10-03T11:31:23;10.07;;;2.70;;
51368;SDS011;37459;51.416;5.502;2022-10-03T11:38:01;8.02;;;2.00;;
51368;SDS011;37459;51.416;5.502;2022-10-03T11:40:39;8.05;;;2.47;;
51368;SDS011;37459;51.416;5.502;2022-10-03T11:46:20;9.25;;;2.35;;
51368;SDS011;37459;51.416;5.502;2022-10-03T11:48:52;10.45;;;2.00;;
51368;SDS011;37459;51.416;5.502;2022-10-03T11:51:34;8.38;;;2.20;;
51368;SDS011;37459;51.416;5.502;2022-10-03T11:54:06;8.85;;;2.28;;
51368;SDS011;37459;51.416;5.502;2022-10-03T11:56:44;8.55;;;2.50;;
51368;SDS011;37459;51.416;5.502;2022-10-03T12:02:04;6.78;;;1.95;;
51368;SDS011;37459;51.416;5.502;2022-10-03T12:04:38;13.43;;;1.90;;
51368;SDS011;37459;51.416;5.502;2022-10-03T12:07:17;8.88;;;2.03;;
51368;SDS011;37459;51.416;5.502;2022-10-03T12:10:24;9.30;;;2.22;;
51368;SDS011;37459;51.416;5.502;2022-10-03T12:13:03;6.75;;;2.00;;
51368;SDS011;37459;51.416;5.502;2022-10-03T12:15:34;10.07;;;2.17;;
51368;SDS011;37459;51.416;5.502;2022-10-03T12:18:10;10.73;;;2.28;;
51368;SDS011;37459;51.416;5.502;2022-10-03T12:26:26;7.45;;;2.15;;
51368;SDS011;37459;51.416;5.502;2022-10-03T12:28:58;9.93;;;2.10;;
51368;SDS011;37459;51.416;5.502;2022-10-03T12:31:31;9.10;;;1.90;;
51368;SDS011;37459;51.416;5.502;2022-10-03T12:34:07;7.53;;;2.10;;
51368;SDS011;37459;51.416;5.502;2022-10-03T12:36:49;9.75;;;1.80;;
51368;SDS011;37459;51.416;5.502;2022-10-03T12:39:25;8.18;;;2.10;;
51368;SDS011;37459;51.416;5.502;2022-10-03T12:42:07;7.15;;;1.95;;
51368;SDS011;37459;51.416;5.502;2022-10-03T12:44:51;9.98;;;2.05;;
51368;SDS011;37459;51.416;5.502;2022-10-03T12:47:26;11.93;;;2.10;;
51368;SDS011;37459;51.416;5.502;2022-10-03T12:50:06;9.52;;;1.90;;
51368;SDS011;37459;51.416;5.502;2022-10-03T12:52:43;9.40;;;2.30;;
51368;SDS011;37459;51.416;5.502;2022-10-03T12:55:21;4.85;;;1.55;;
51368;SDS011;37459;51.416;5.502;2022-10-03T12:57:59;6.72;;;1.80;;
51368;SDS011;37459;51.416;5.502;2022-10-03T13:00:33;8.10;;;1.60;;
51368;SDS011;37459;51.416;5.502;2022-10-03T13:03:17;8.32;;;1.77;;
51368;SDS011;37459;51.416;5.502;2022-10-03T13:09:07;7.78;;;1.77;;
51368;SDS011;37459;51.416;5.502;2022-10-03T13:11:45;10.85;;;1.83;;
51368;SDS011;37459;51.416;5.502;2022-10-03T13:14:25;8.60;;;1.67;;
51368;SDS011;37459;51.416;5.502;2022-10-03T13:17:07;7.93;;;1.77;;
51368;SDS011;37459;51.416;5.502;2022-10-03T13:19:46;8.48;;;1.83;;
51368;SDS011;37459;51.416;5.502;2022-10-03T13:22:25;9.85;;;2.08;;
51368;SDS011;37459;51.416;5.502;2022-10-03T13:25:01;6.30;;;1.65;;
51368;SDS011;37459;51.416;5.502;2022-10-03T13:27:34;9.57;;;2.10;;
51368;SDS011;37459;51.416;5.502;2022-10-03T13:30:12;13.15;;;2.17;;
51368;SDS011;37459;51.416;5.502;2022-10-03T13:32:45;14.73;;;1.92;;
51368;SDS011;37459;51.416;5.502;2022-10-03T13:35:21;10.43;;;1.73;;
51368;SDS011;37459;51.416;5.502;2022-10-03T13:38:26;42.67;;;3.53;;
51368;SDS011;37459;51.416;5.502;2022-10-03T13:41:08;22.25;;;2.40;;
51368;SDS011;37459;51.416;5.502;2022-10-03T13:43:44;14.73;;;2.00;;
51368;SDS011;37459;51.416;5.502;2022-10-03T13:46:16;7.47;;;1.77;;
51368;SDS011;37459;51.416;5.502;2022-10-03T13:48:49;10.63;;;2.30;;
51368;SDS011;37459;51.416;5.502;2022-10-03T13:51:24;11.27;;;1.95;;
51368;SDS011;37459;51.416;5.502;2022-10-03T13:54:00;11.98;;;1.88;;
51368;SDS011;37459;51.416;5.502;2022-10-03T13:56:35;12.85;;;2.15;;
51368;SDS011;37459;51.416;5.502;2022-10-03T13:59:10;11.82;;;2.00;;
51368;SDS011;37459;51.416;5.502;2022-10-03T14:01:50;6.90;;;1.75;;
51368;SDS011;37459;51.416;5.502;2022-10-03T14:04:37;9.63;;;2.05;;
51368;SDS011;37459;51.416;5.502;2022-10-03T14:07:16;9.48;;;3.05;;
51368;SDS011;37459;51.416;5.502;2022-10-03T14:12:29;5.95;;;1.58;;
51368;SDS011;37459;51.416;5.502;2022-10-03T14:15:23;15.02;;;2.17;;
51368;SDS011;37459;51.416;5.502;2022-10-03T14:17:59;7.47;;;2.10;;
51368;SDS011;37459;51.416;5.502;2022-10-03T14:20:39;10.93;;;2.17;;
51368;SDS011;37459;51.416;5.502;2022-10-03T14:23:27;8.07;;;1.98;;
51368;SDS011;37459;51.416;5.502;2022-10-03T14:26:02;12.05;;;2.50;;
51368;SDS011;37459;51.416;5.502;2022-10-03T14:28:39;8.77;;;2.25;;
51368;SDS011;37459;51.416;5.502;2022-10-03T14:31:14;9.20;;;2.17;;
51368;SDS011;37459;51.416;5.502;2022-10-03T14:33:50;9.97;;;2.10;;
51368;SDS011;37459;51.416;5.502;2022-10-03T14:36:28;13.43;;;2.88;;
51368;SDS011;37459;51.416;5.502;2022-10-03T14:39:05;7.70;;;2.13;;
51368;SDS011;37459;51.416;5.502;2022-10-03T14:41:48;6.47;;;2.20;;
51368;SDS011;37459;51.416;5.502;2022-10-03T14:44:35;9.55;;;2.40;;
51368;SDS011;37459;51.416;5.502;2022-10-03T14:47:06;9.02;;;2.67;;
51368;SDS011;37459;51.416;5.502;2022-10-03T14:49:35;11.13;;;2.13;;
51368;SDS011;37459;51.416;5.502;2022-10-03T14:52:05;9.55;;;2.10;;
51368;SDS011;37459;51.416;5.502;2022-10-03T14:54:47;10.35;;;1.80;;
51368;SDS011;37459;51.416;5.502;2022-10-03T14:57:22;12.82;;;2.38;;
51368;SDS011;37459;51.416;5.502;2022-10-03T14:59:55;8.15;;;2.20;;
51368;SDS011;37459;51.416;5.502;2022-10-03T15:02:25;10.30;;;2.20;;
51368;SDS011;37459;51.416;5.502;2022-10-03T15:04:56;10.60;;;2.10;;
51368;SDS011;37459;51.416;5.502;2022-10-03T15:07:31;7.30;;;1.60;;
51368;SDS011;37459;51.416;5.502;2022-10-03T15:10:01;9.65;;;2.20;;
51368;SDS011;37459;51.416;5.502;2022-10-03T15:12:32;53.97;;;34.13;;
51368;SDS011;37459;51.416;5.502;2022-10-03T15:15:03;16.80;;;8.50;;
51368;SDS011;37459;51.416;5.502;2022-10-03T15:17:34;9.43;;;2.63;;
51368;SDS011;37459;51.416;5.502;2022-10-03T15:20:08;6.22;;;2.10;;
51368;SDS011;37459;51.416;5.502;2022-10-03T15:22:37;8.57;;;2.40;;
51368;SDS011;37459;51.416;5.502;2022-10-03T15:25:07;11.45;;;2.45;;
51368;SDS011;37459;51.416;5.502;2022-10-03T15:27:40;13.20;;;2.40;;
51368;SDS011;37459;51.416;5.502;2022-10-03T15:30:15;8.60;;;2.13;;
51368;SDS011;37459;51.416;5.502;2022-10-03T15:32:45;10.35;;;2.40;;
51368;SDS011;37459;51.416;5.502;2022-10-03T15:35:15;10.88;;;2.60;;
51368;SDS011;37459;51.416;5.502;2022-10-03T15:37:43;10.57;;;2.50;;
51368;SDS011;37459;51.416;5.502;2022-10-03T15:40:18;11.15;;;3.40;;
51368;SDS011;37459;51.416;5.502;2022-10-03T15:42:50;14.57;;;2.58;;
51368;SDS011;37459;51.416;5.502;2022-10-03T15:45:25;13.20;;;3.40;;
51368;SDS011;37459;51.416;5.502;2022-10-03T15:47:57;12.88;;;3.35;;
51368;SDS011;37459;51.416;5.502;2022-10-03T15:50:28;11.45;;;3.38;;
51368;SDS011;37459;51.416;5.502;2022-10-03T15:52:59;10.90;;;3.13;;
51368;SDS011;37459;51.416;5.502;2022-10-03T15:55:33;14.52;;;2.97;;
51368;SDS011;37459;51.416;5.502;2022-10-03T15:58:10;13.70;;;2.95;;
51368;SDS011;37459;51.416;5.502;2022-10-03T16:00:46;12.10;;;2.63;;
51368;SDS011;37459;51.416;5.502;2022-10-03T16:03:21;9.77;;;2.67;;
51368;SDS011;37459;51.416;5.502;2022-10-03T16:05:55;8.57;;;2.60;;
51368;SDS011;37459;51.416;5.502;2022-10-03T16:08:29;10.07;;;2.90;;
51368;SDS011;37459;51.416;5.502;2022-10-03T16:11:03;9.32;;;2.47;;
51368;SDS011;37459;51.416;5.502;2022-10-03T16:13:36;19.98;;;10.65;;
51368;SDS011;37459;51.416;5.502;2022-10-03T16:16:15;17.13;;;5.70;;
51368;SDS011;37459;51.416;5.502;2022-10-03T16:18:49;11.18;;;3.10;;
51368;SDS011;37459;51.416;5.502;2022-10-03T16:21:24;8.18;;;2.97;;
51368;SDS011;37459;51.416;5.502;2022-10-03T16:23:57;8.70;;;2.70;;
51368;SDS011;37459;51.416;5.502;2022-10-03T16:26:28;8.63;;;2.83;;
51368;SDS011;37459;51.416;5.502;2022-10-03T16:29:03;9.98;;;2.72;;
51368;SDS011;37459;51.416;5.502;2022-10-03T16:31:38;11.88;;;2.97;;
51368;SDS011;37459;51.416;5.502;2022-10-03T16:34:11;11.80;;;3.17;;
51368;SDS011;37459;51.416;5.502;2022-10-03T16:36:40;10.63;;;3.03;;
51368;SDS011;37459;51.416;5.502;2022-10-03T16:39:14;8.93;;;2.92;;
51368;SDS011;37459;51.416;5.502;2022-10-03T16:41:45;7.95;;;2.85;;
51368;SDS011;37459;51.416;5.502;2022-10-03T16:44:18;6.53;;;2.67;;
51368;SDS011;37459;51.416;5.502;2022-10-03T16:46:48;9.68;;;2.95;;
51368;SDS011;37459;51.416;5.502;2022-10-03T16:49:23;9.75;;;2.83;;
51368;SDS011;37459;51.416;5.502;2022-10-03T16:52:17;10.55;;;3.05;;
51368;SDS011;37459;51.416;5.502;2022-10-03T16:54:46;10.07;;;3.58;;
51368;SDS011;37459;51.416;5.502;2022-10-03T16:57:17;8.63;;;2.70;;
51368;SDS011;37459;51.416;5.502;2022-10-03T16:59:48;13.32;;;3.65;;
51368;SDS011;37459;51.416;5.502;2022-10-03T17:02:17;8.15;;;2.90;;
51368;SDS011;37459;51.416;5.502;2022-10-03T17:04:46;8.05;;;3.10;;
51368;SDS011;37459;51.416;5.502;2022-10-03T17:07:17;10.63;;;3.10;;
51368;SDS011;37459;51.416;5.502;2022-10-03T17:09:46;9.43;;;3.05;;
51368;SDS011;37459;51.416;5.502;2022-10-03T17:12:15;11.32;;;3.38;;
51368;SDS011;37459;51.416;5.502;2022-10-03T17:14:47;9.40;;;3.53;;
51368;SDS011;37459;51.416;5.502;2022-10-03T17:17:23;15.98;;;4.20;;
51368;SDS011;37459;51.416;5.502;2022-10-03T17:19:56;10.70;;;3.55;;
51368;SDS011;37459;51.416;5.502;2022-10-03T17:22:29;12.30;;;3.72;;
51368;SDS011;37459;51.416;5.502;2022-10-03T17:25:02;12.57;;;4.20;;
51368;SDS011;37459;51.416;5.502;2022-10-03T17:27:34;9.63;;;4.75;;
51368;SDS011;37459;51.416;5.502;2022-10-03T17:30:12;13.27;;;5.15;;
51368;SDS011;37459;51.416;5.502;2022-10-03T17:32:44;12.90;;;5.65;;
51368;SDS011;37459;51.416;5.502;2022-10-03T17:35:22;10.10;;;5.63;;
51368;SDS011;37459;51.416;5.502;2022-10-03T17:38:00;14.95;;;5.80;;
51368;SDS011;37459;51.416;5.502;2022-10-03T17:40:46;12.63;;;5.53;;
51368;SDS011;37459;51.416;5.502;2022-10-03T17:43:16;8.88;;;4.70;;
51368;SDS011;37459;51.416;5.502;2022-10-03T17:45:54;14.45;;;5.80;;
51368;SDS011;37459;51.416;5.502;2022-10-03T17:48:31;15.02;;;5.50;;
51368;SDS011;37459;51.416;5.502;2022-10-03T17:51:12;13.10;;;5.43;;
51368;SDS011;37459;51.416;5.502;2022-10-03T17:53:52;9.90;;;4.63;;
51368;SDS011;37459;51.416;5.502;2022-10-03T17:56:22;14.07;;;5.80;;
51368;SDS011;37459;51.416;5.502;2022-10-03T17:58:51;15.48;;;4.72;;
51368;SDS011;37459;51.416;5.502;2022-10-03T18:01:26;12.23;;;4.32;;
51368;SDS011;37459;51.416;5.502;2022-10-03T18:03:59;17.45;;;4.43;;
51368;SDS011;37459;51.416;5.502;2022-10-03T18:06:44;10.32;;;3.90;;
51368;SDS011;37459;51.416;5.502;2022-10-03T18:12:08;10.63;;;3.22;;
51368;SDS011;37459;51.416;5.502;2022-10-03T18:14:43;13.70;;;3.50;;
51368;SDS011;37459;51.416;5.502;2022-10-03T18:17:25;8.95;;;3.63;;
51368;SDS011;37459;51.416;5.502;2022-10-03T18:20:06;11.32;;;3.90;;
51368;SDS011;37459;51.416;5.502;2022-10-03T18:22:49;12.10;;;4.10;;
51368;SDS011;37459;51.416;5.502;2022-10-03T18:25:24;9.73;;;3.97;;
51368;SDS011;37459;51.416;5.502;2022-10-03T18:28:14;10.48;;;3.85;;
51368;SDS011;37459;51.416;5.502;2022-10-03T18:30:48;8.55;;;3.90;;
51368;SDS011;37459;51.416;5.502;2022-10-03T18:33:19;12.73;;;4.30;;
51368;SDS011;37459;51.416;5.502;2022-10-03T18:35:50;14.00;;;5.13;;
51368;SDS011;37459;51.416;5.502;2022-10-03T18:38:18;23.90;;;10.85;;
51368;SDS011;37459;51.416;5.502;2022-10-03T18:40:48;29.02;;;13.85;;
51368;SDS011;37459;51.416;5.502;2022-10-03T18:43:25;27.45;;;13.88;;